createdAt,value
2018-09-25T00:01:27.717Z,10.38
2018-09-25T00:04:01.194Z,10.53
2018-09-25T00:06:34.813Z,10.33
2018-09-25T00:09:08.242Z,10.34
2018-09-25T00:11:41.622Z,10.28
2018-09-25T00:14:15.387Z,10.33
2018-09-25T00:16:49.021Z,10.35
2018-09-25T00:19:22.498Z,10.40
2018-09-25T00:21:56.074Z,10.36
2018-09-25T00:24:29.674Z,10.17
2018-09-25T00:27:03.075Z,10.33
2018-09-25T00:29:36.619Z,10.25
2018-09-25T00:32:10.150Z,10.29
2018-09-25T00:34:43.755Z,10.34
2018-09-25T00:37:17.338Z,10.25
2018-09-25T00:39:50.941Z,10.34
2018-09-25T00:42:24.409Z,10.35
2018-09-25T00:44:57.841Z,10.14
2018-09-25T00:47:31.218Z,10.35
2018-09-25T00:50:04.822Z,10.01
2018-09-25T00:52:38.258Z,10.06
2018-09-25T00:55:11.971Z,10.02
2018-09-25T00:57:45.454Z,9.94
2018-09-25T01:00:19.199Z,9.85
2018-09-25T01:02:52.639Z,9.60
2018-09-25T01:05:26.178Z,9.91
2018-09-25T01:07:59.706Z,9.65
2018-09-25T01:10:33.192Z,9.70
2018-09-25T01:13:06.834Z,9.49
2018-09-25T01:15:40.280Z,9.63
2018-09-25T01:18:13.833Z,9.59
2018-09-25T01:20:47.266Z,9.79
2018-09-25T01:23:20.800Z,9.13
2018-09-25T01:25:54.285Z,9.33
2018-09-25T01:28:27.843Z,9.24
2018-09-25T01:31:01.250Z,9.30
2018-09-25T01:33:34.757Z,9.26
2018-09-25T01:36:08.411Z,9.08
2018-09-25T01:38:41.989Z,9.31
2018-09-25T01:41:15.592Z,9.43
2018-09-25T01:43:49.199Z,9.52
2018-09-25T01:46:22.793Z,9.42
2018-09-25T01:48:56.238Z,9.51
2018-09-25T01:51:29.738Z,9.51
2018-09-25T01:54:03.242Z,9.50
2018-09-25T01:56:36.743Z,9.23
2018-09-25T01:59:10.502Z,9.25
2018-09-25T02:01:44.081Z,9.14
2018-09-25T02:04:17.600Z,9.20
2018-09-25T02:06:51.199Z,9.12
2018-09-25T02:09:24.554Z,9.18
2018-09-25T02:11:58.157Z,9.31
2018-09-25T02:14:31.697Z,9.20
2018-09-25T02:17:05.136Z,9.15
2018-09-25T02:19:38.586Z,9.36
2018-09-25T02:22:12.239Z,9.06
2018-09-25T02:24:45.650Z,9.11
2018-09-25T02:27:19.168Z,9.13
2018-09-25T02:29:52.708Z,8.98
2018-09-25T02:32:26.180Z,8.86
2018-09-25T02:34:59.698Z,9.16
2018-09-25T02:37:33.231Z,8.97
2018-09-25T02:40:06.686Z,8.99
2018-09-25T02:42:40.004Z,8.89
2018-09-25T02:45:13.600Z,8.73
2018-09-25T02:47:47.312Z,8.69
2018-09-25T02:50:20.934Z,8.92
2018-09-25T02:52:54.311Z,8.58
2018-09-25T02:55:27.778Z,8.55
2018-09-25T02:58:01.319Z,8.53
2018-09-25T03:00:34.844Z,8.39
2018-09-25T03:03:08.414Z,8.49
2018-09-25T03:05:41.914Z,8.69
2018-09-25T03:08:15.496Z,8.61
2018-09-25T03:10:48.993Z,8.54
2018-09-25T03:13:22.708Z,8.59
2018-09-25T03:15:56.178Z,8.63
2018-09-25T03:18:29.726Z,8.71
2018-09-25T03:21:03.046Z,8.71
2018-09-25T03:23:36.691Z,8.51
2018-09-25T03:26:10.262Z,8.43
2018-09-25T03:28:43.762Z,8.52
2018-09-25T03:31:17.294Z,8.55
2018-09-25T03:33:50.770Z,8.41
2018-09-25T03:36:24.347Z,8.55
2018-09-25T03:38:57.673Z,8.58
2018-09-25T03:41:32.353Z,8.58
2018-09-25T03:44:06.026Z,8.44
2018-09-25T03:46:39.374Z,8.50
2018-09-25T03:49:12.969Z,8.58
2018-09-25T03:51:46.566Z,8.61
2018-09-25T03:54:20.004Z,8.48
2018-09-25T03:56:53.557Z,8.31
2018-09-25T03:59:27.390Z,8.55
2018-09-25T04:02:00.870Z,8.49
2018-09-25T04:04:34.561Z,8.41
2018-09-25T04:07:08.123Z,8.15
2018-09-25T04:09:45.512Z,8.29
2018-09-25T04:12:18.989Z,8.39
2018-09-25T04:14:52.601Z,8.40
2018-09-25T04:17:26.106Z,8.27
2018-09-25T04:19:59.575Z,8.33
2018-09-25T04:22:33.173Z,8.28
2018-09-25T04:25:06.701Z,8.54
2018-09-25T04:27:40.239Z,8.49
2018-09-25T04:30:13.781Z,8.33
2018-09-25T04:32:47.288Z,8.41
2018-09-25T04:35:20.866Z,8.42
2018-09-25T04:37:54.544Z,8.47
2018-09-25T04:40:28.142Z,8.45
2018-09-25T04:43:01.667Z,7.98
2018-09-25T04:45:35.125Z,8.22
2018-09-25T04:48:08.728Z,8.41
2018-09-25T04:50:42.210Z,8.07
2018-09-25T04:53:15.641Z,8.22
2018-09-25T04:55:49.102Z,8.09
2018-09-25T04:58:22.456Z,8.30
2018-09-25T05:00:56.046Z,8.16
2018-09-25T05:03:29.426Z,8.13
2018-09-25T05:06:02.961Z,8.30
2018-09-25T05:08:36.458Z,8.54
2018-09-25T05:11:09.890Z,8.46
2018-09-25T05:13:43.382Z,8.66
2018-09-25T05:16:16.800Z,8.54
2018-09-25T05:18:50.420Z,8.52
2018-09-25T05:21:23.829Z,8.39
2018-09-25T05:23:57.303Z,8.48
2018-09-25T05:26:30.846Z,8.42
2018-09-25T05:29:04.286Z,8.52
2018-09-25T05:31:37.886Z,8.55
2018-09-25T05:34:11.553Z,8.61
2018-09-25T05:36:45.039Z,8.69
2018-09-25T05:39:19.633Z,8.61
2018-09-25T05:41:53.049Z,8.67
2018-09-25T05:44:26.824Z,8.55
2018-09-25T05:47:00.251Z,8.41
2018-09-25T05:49:33.834Z,8.59
2018-09-25T05:52:08.594Z,8.68
2018-09-25T05:54:42.385Z,8.54
2018-09-25T05:57:15.874Z,8.53
2018-09-25T05:59:49.497Z,8.57
2018-09-25T06:02:22.975Z,8.79
2018-09-25T06:04:56.604Z,8.61
2018-09-25T06:07:33.920Z,8.29
2018-09-25T06:10:07.543Z,8.32
2018-09-25T06:12:41.061Z,8.43
2018-09-25T06:15:14.726Z,8.54
2018-09-25T06:17:48.230Z,8.14
2018-09-25T06:20:21.765Z,8.18
2018-09-25T06:22:55.193Z,8.30
2018-09-25T06:25:29.123Z,8.31
2018-09-25T06:28:02.561Z,8.50
2018-09-25T06:30:36.076Z,8.64
2018-09-25T06:33:09.648Z,8.56
2018-09-25T06:35:43.262Z,8.58
2018-09-25T06:38:16.858Z,8.54
2018-09-25T06:40:50.671Z,8.56
2018-09-25T06:43:24.287Z,8.66
2018-09-25T06:45:57.844Z,8.57
2018-09-25T06:48:31.383Z,8.55
2018-09-25T06:51:05.165Z,8.66
2018-09-25T06:53:38.860Z,8.29
2018-09-25T06:56:12.501Z,8.35
2018-09-25T06:58:45.976Z,8.43
2018-09-25T07:01:21.919Z,8.71
2018-09-25T07:03:55.533Z,8.48
2018-09-25T07:06:29.082Z,8.55
2018-09-25T07:09:02.510Z,8.33
2018-09-25T07:11:36.054Z,8.54
2018-09-25T07:14:09.586Z,8.48
2018-09-25T07:16:43.086Z,8.46
2018-09-25T07:19:16.637Z,8.06
2018-09-25T07:21:50.142Z,8.47
2018-09-25T07:24:23.667Z,8.73
2018-09-25T07:26:57.189Z,8.97
2018-09-25T07:29:30.575Z,8.95
2018-09-25T07:32:04.263Z,8.97
2018-09-25T07:34:37.805Z,8.98
2018-09-25T07:37:11.327Z,8.62
2018-09-25T07:39:44.801Z,9.18
2018-09-25T07:42:18.398Z,8.78
2018-09-25T07:44:51.832Z,8.96
2018-09-25T07:47:25.299Z,10.51
2018-09-25T07:49:58.782Z,10.34
2018-09-25T07:52:32.246Z,11.43
2018-09-25T07:55:05.607Z,12.51
2018-09-25T07:57:39.181Z,13.68
2018-09-25T08:00:12.939Z,13.28
2018-09-25T08:02:46.311Z,14.77
2018-09-25T08:05:19.903Z,14.47
2018-09-25T08:07:53.277Z,14.44
2018-09-25T08:10:26.878Z,13.59
2018-09-25T08:13:00.376Z,13.77
2018-09-25T08:15:33.869Z,13.43
2018-09-25T08:18:07.335Z,13.83
2018-09-25T08:20:40.873Z,14.79
2018-09-25T08:23:14.386Z,16.64
2018-09-25T08:25:47.878Z,16.68
2018-09-25T08:28:21.371Z,15.94
2018-09-25T08:30:55.002Z,16.47
2018-09-25T08:33:29.571Z,15.13
2018-09-25T08:36:03.037Z,15.42
2018-09-25T08:38:36.709Z,15.37
2018-09-25T08:41:10.107Z,13.64
2018-09-25T08:43:43.647Z,12.41
2018-09-25T08:46:17.132Z,13.57
2018-09-25T08:48:50.705Z,13.18
2018-09-25T08:51:24.190Z,13.18
2018-09-25T08:53:57.758Z,13.55
2018-09-25T08:56:31.182Z,14.17
2018-09-25T08:59:04.501Z,14.17
2018-09-25T09:01:38.122Z,13.88
2018-09-25T09:04:11.941Z,14.07
2018-09-25T09:06:45.432Z,14.44
2018-09-25T09:09:18.974Z,13.98
2018-09-25T09:11:52.497Z,13.22
2018-09-25T09:14:26.111Z,13.93
2018-09-25T09:16:59.673Z,14.00
2018-09-25T09:19:33.352Z,13.77
2018-09-25T09:22:06.906Z,13.97
2018-09-25T09:24:40.410Z,14.18
2018-09-25T09:27:14.009Z,14.40
2018-09-25T09:29:48.044Z,14.48
2018-09-25T09:32:21.660Z,14.65
2018-09-25T09:34:56.368Z,14.75
2018-09-25T09:37:29.992Z,14.81
2018-09-25T09:40:03.605Z,14.69
2018-09-25T09:42:37.093Z,14.82
2018-09-25T09:45:10.633Z,14.95
2018-09-25T09:47:44.027Z,14.92
2018-09-25T09:50:17.629Z,14.99
2018-09-25T09:52:50.925Z,14.68
2018-09-25T09:55:24.483Z,14.82
2018-09-25T09:57:58.059Z,15.06
2018-09-25T10:00:31.686Z,14.65
2018-09-25T10:03:05.289Z,14.86
2018-09-25T10:05:38.878Z,14.77
2018-09-25T10:08:12.452Z,14.95
2018-09-25T10:10:45.924Z,15.10
2018-09-25T10:13:19.517Z,15.07
2018-09-25T10:15:52.993Z,14.98
2018-09-25T10:18:26.579Z,15.13
2018-09-25T10:21:00.146Z,14.79
2018-09-25T10:23:33.631Z,15.02
2018-09-25T10:26:07.103Z,14.82
2018-09-25T10:28:40.666Z,14.67
2018-09-25T10:31:14.194Z,14.77
2018-09-25T10:33:47.806Z,14.87
2018-09-25T10:36:21.502Z,15.14
2018-09-25T10:38:54.957Z,15.14
2018-09-25T10:41:28.534Z,14.81
2018-09-25T10:44:02.911Z,14.78
2018-09-25T10:46:36.608Z,14.69
2018-09-25T10:49:09.965Z,14.92
2018-09-25T10:51:43.525Z,14.75
2018-09-25T10:54:16.874Z,15.03
2018-09-25T10:56:50.229Z,15.01
2018-09-25T10:59:23.745Z,14.88
2018-09-25T11:01:57.427Z,15.16
2018-09-25T11:04:31.138Z,15.30
2018-09-25T11:07:04.657Z,15.30
2018-09-25T11:09:38.162Z,15.36
2018-09-25T11:12:11.342Z,15.56
2018-09-25T11:14:44.810Z,15.42
2018-09-25T11:17:18.482Z,15.70
2018-09-25T11:19:51.867Z,15.60
2018-09-25T11:22:25.362Z,15.65
2018-09-25T11:24:58.970Z,15.45
2018-09-25T11:27:32.611Z,15.53
2018-09-25T11:30:06.243Z,15.52
2018-09-25T11:32:39.706Z,15.73
2018-09-25T11:35:13.319Z,15.30
2018-09-25T11:37:46.883Z,15.54
2018-09-25T11:40:20.395Z,15.44
2018-09-25T11:42:53.895Z,15.23
2018-09-25T11:45:27.362Z,15.41
2018-09-25T11:48:00.746Z,15.40
2018-09-25T11:50:34.466Z,15.22
2018-09-25T11:53:08.054Z,15.19
2018-09-25T11:55:41.605Z,15.34
2018-09-25T11:58:15.075Z,15.41
2018-09-25T12:00:48.681Z,15.77
2018-09-25T12:03:22.337Z,15.52
2018-09-25T12:05:55.934Z,15.79
2018-09-25T12:08:29.397Z,15.80
2018-09-25T12:11:02.957Z,15.98
2018-09-25T12:13:36.517Z,15.99
2018-09-25T12:16:10.010Z,15.57
2018-09-25T12:18:43.520Z,15.64
2018-09-25T12:21:16.931Z,15.72
2018-09-25T12:23:50.485Z,15.50
2018-09-25T12:26:23.929Z,15.41
2018-09-25T12:28:57.398Z,15.55
2018-09-25T12:31:30.975Z,15.55
2018-09-25T12:34:04.654Z,15.58
2018-09-25T12:36:38.373Z,15.59
2018-09-25T12:39:13.427Z,16.08
2018-09-25T12:41:47.158Z,15.97
2018-09-25T12:44:20.774Z,16.15
2018-09-25T12:46:54.130Z,16.20
2018-09-25T12:49:27.821Z,16.18
2018-09-25T12:52:01.267Z,16.18
2018-09-25T12:54:34.931Z,16.61
2018-09-25T12:57:08.602Z,16.47
2018-09-25T12:59:42.081Z,16.55
2018-09-25T13:02:15.697Z,16.32
2018-09-25T13:04:50.389Z,16.41
2018-09-25T13:07:23.888Z,16.75
2018-09-25T13:09:57.430Z,16.57
2018-09-25T13:12:30.974Z,16.90
2018-09-25T13:15:04.662Z,16.62
2018-09-25T13:17:38.106Z,16.06
2018-09-25T13:20:11.661Z,16.38
2018-09-25T13:22:45.392Z,17.05
2018-09-25T13:25:18.856Z,17.13
2018-09-25T13:27:52.216Z,17.39
2018-09-25T13:30:25.754Z,17.50
2018-09-25T13:32:59.343Z,17.36
2018-09-25T13:35:32.953Z,17.29
2018-09-25T13:38:06.326Z,17.33
2018-09-25T13:40:39.821Z,17.38
2018-09-25T13:43:13.358Z,17.63
2018-09-25T13:45:46.753Z,17.60
2018-09-25T13:48:20.225Z,17.50
2018-09-25T13:50:53.705Z,17.28
2018-09-25T13:53:27.242Z,17.30
2018-09-25T13:56:00.827Z,17.34
2018-09-25T13:58:34.322Z,17.75
2018-09-25T14:01:07.784Z,17.06
2018-09-25T14:03:41.284Z,17.26
2018-09-25T14:06:14.880Z,17.54
2018-09-25T14:08:48.302Z,17.54
2018-09-25T14:11:21.790Z,17.60
2018-09-25T14:13:55.248Z,17.68
2018-09-25T14:16:28.731Z,17.64
2018-09-25T14:19:02.274Z,17.66
2018-09-25T14:21:35.829Z,17.58
2018-09-25T14:24:09.392Z,17.71
2018-09-25T14:26:42.844Z,17.76
2018-09-25T14:29:16.509Z,17.67
2018-09-25T14:31:50.136Z,17.62
2018-09-25T14:34:23.778Z,17.33
2018-09-25T14:36:57.597Z,17.54
2018-09-25T14:39:31.034Z,17.53
2018-09-25T14:42:04.554Z,17.34
2018-09-25T14:44:38.005Z,17.43
2018-09-25T14:47:11.819Z,16.73
2018-09-25T14:49:45.181Z,16.80
2018-09-25T14:52:18.562Z,16.74
2018-09-25T14:54:52.119Z,17.12
2018-09-25T14:57:25.607Z,17.28
2018-09-25T14:59:59.133Z,17.44
2018-09-25T15:02:32.583Z,17.39
2018-09-25T15:05:05.954Z,17.48
2018-09-25T15:07:39.350Z,17.58
2018-09-25T15:10:12.907Z,17.47
2018-09-25T15:12:46.318Z,17.17
2018-09-25T15:15:19.735Z,17.25
2018-09-25T15:17:53.236Z,17.07
2018-09-25T15:20:26.757Z,16.86
2018-09-25T15:23:00.378Z,16.96
2018-09-25T15:25:33.783Z,16.67
2018-09-25T15:28:07.193Z,16.65
2018-09-25T15:30:40.754Z,16.40
2018-09-25T15:33:14.276Z,16.66
2018-09-25T15:35:47.940Z,16.61
2018-09-25T15:38:21.465Z,16.88
2018-09-25T15:40:55.124Z,16.92
2018-09-25T15:43:28.471Z,16.91
2018-09-25T15:46:02.043Z,16.87
2018-09-25T15:48:35.539Z,16.87
2018-09-25T15:51:09.286Z,16.74
2018-09-25T15:53:42.910Z,16.79
2018-09-25T15:56:16.511Z,16.66
2018-09-25T15:58:50.185Z,16.63
2018-09-25T16:01:23.639Z,16.37
2018-09-25T16:03:57.172Z,16.47
2018-09-25T16:06:30.661Z,16.46
2018-09-25T16:09:04.242Z,16.24
2018-09-25T16:11:37.891Z,16.36
2018-09-25T16:14:11.587Z,16.31
2018-09-25T16:16:44.986Z,16.28
2018-09-25T16:19:18.570Z,16.35
2018-09-25T16:21:52.290Z,16.41
2018-09-25T16:24:25.867Z,16.44
2018-09-25T16:26:59.308Z,16.39
2018-09-25T16:29:32.829Z,16.46
2018-09-25T16:32:06.305Z,16.35
2018-09-25T16:34:39.914Z,16.31
2018-09-25T16:37:13.393Z,16.27
2018-09-25T16:39:46.890Z,16.21
2018-09-25T16:42:20.377Z,16.15
2018-09-25T16:44:53.849Z,16.19
2018-09-25T16:47:27.403Z,16.20
2018-09-25T16:50:00.859Z,16.08
2018-09-25T16:52:34.577Z,15.89
2018-09-25T16:55:08.139Z,15.97
2018-09-25T16:57:41.755Z,15.80
2018-09-25T17:00:15.298Z,15.69
2018-09-25T17:02:48.833Z,15.67
2018-09-25T17:05:22.158Z,15.56
2018-09-25T17:07:55.726Z,15.42
2018-09-25T17:10:29.330Z,15.37
2018-09-25T17:13:02.838Z,15.46
2018-09-25T17:15:36.456Z,15.22
2018-09-25T17:18:10.101Z,15.22
2018-09-25T17:20:43.539Z,15.02
2018-09-25T17:23:17.125Z,15.18
2018-09-25T17:25:50.769Z,15.13
2018-09-25T17:28:24.423Z,14.96
2018-09-25T17:30:58.055Z,14.95
2018-09-25T17:33:31.819Z,14.81
2018-09-25T17:36:05.323Z,14.67
2018-09-25T17:38:38.925Z,14.73
2018-09-25T17:41:12.582Z,14.53
2018-09-25T17:43:45.988Z,14.57
2018-09-25T17:46:19.644Z,14.47
2018-09-25T17:48:53.158Z,14.36
2018-09-25T17:51:26.558Z,14.48
2018-09-25T17:54:00.078Z,14.38
2018-09-25T17:56:33.645Z,14.24
2018-09-25T17:59:07.078Z,14.11
2018-09-25T18:01:40.643Z,13.95
2018-09-25T18:04:14.143Z,13.83
2018-09-25T18:06:47.590Z,13.86
2018-09-25T18:09:21.169Z,13.87
2018-09-25T18:11:54.708Z,13.57
2018-09-25T18:14:28.242Z,13.81
2018-09-25T18:17:01.690Z,13.70
2018-09-25T18:19:35.079Z,13.57
2018-09-25T18:22:08.777Z,13.42
2018-09-25T18:24:42.134Z,13.39
2018-09-25T18:27:15.861Z,13.53
2018-09-25T18:29:49.215Z,13.47
2018-09-25T18:32:22.713Z,13.43
2018-09-25T18:34:56.243Z,13.30
2018-09-25T18:37:29.829Z,13.28
2018-09-25T18:40:03.513Z,13.16
2018-09-25T18:42:36.975Z,12.95
2018-09-25T18:45:10.656Z,13.03
2018-09-25T18:47:44.218Z,13.11
2018-09-25T18:50:17.779Z,12.90
2018-09-25T18:52:51.365Z,12.75
2018-09-25T18:55:24.996Z,12.91
2018-09-25T18:57:58.419Z,12.78
2018-09-25T19:00:31.812Z,12.63
2018-09-25T19:03:05.455Z,12.60
2018-09-25T19:05:39.061Z,12.51
2018-09-25T19:08:12.538Z,12.33
2018-09-25T19:10:46.159Z,12.40
2018-09-25T19:13:19.558Z,12.51
2018-09-25T19:15:53.090Z,12.51
2018-09-25T19:18:26.610Z,12.48
2018-09-25T19:21:00.082Z,12.42
2018-09-25T19:23:33.551Z,12.44
2018-09-25T19:26:07.130Z,12.47
2018-09-25T19:28:40.498Z,12.25
2018-09-25T19:31:14.106Z,12.25
2018-09-25T19:33:47.740Z,12.02
2018-09-25T19:36:21.274Z,12.13
2018-09-25T19:38:54.801Z,12.01
2018-09-25T19:41:28.296Z,11.86
2018-09-25T19:44:01.790Z,11.88
2018-09-25T19:46:35.342Z,11.81
2018-09-25T19:49:08.849Z,11.51
2018-09-25T19:51:42.527Z,11.56
2018-09-25T19:54:16.046Z,11.68
2018-09-25T19:56:49.737Z,11.63
2018-09-25T19:59:23.334Z,11.68
2018-09-25T20:01:56.973Z,11.43
2018-09-25T20:04:30.502Z,11.25
2018-09-25T20:07:04.170Z,11.18
2018-09-25T20:09:37.701Z,11.29
2018-09-25T20:12:11.214Z,11.38
2018-09-25T20:14:48.394Z,11.42
2018-09-25T20:17:21.921Z,11.47
2018-09-25T20:19:55.427Z,11.42
2018-09-25T20:22:35.079Z,11.61
2018-09-25T20:25:08.619Z,11.31
2018-09-25T20:27:42.153Z,11.47
2018-09-25T20:30:15.787Z,11.32
2018-09-25T20:32:49.360Z,11.48
2018-09-25T20:35:32.022Z,11.36
2018-09-25T20:38:05.744Z,11.19
2018-09-25T20:40:39.419Z,11.23
2018-09-25T20:43:13.073Z,11.19
2018-09-25T20:45:46.588Z,11.02
2018-09-25T20:48:20.167Z,11.00
2018-09-25T20:50:53.813Z,11.02
2018-09-25T20:53:27.213Z,11.00
2018-09-25T20:56:00.677Z,11.01
2018-09-25T20:58:34.283Z,11.00
2018-09-25T21:01:07.883Z,11.00
2018-09-25T21:03:41.507Z,11.13
2018-09-25T21:06:15.125Z,11.07
2018-09-25T21:08:48.507Z,11.04
2018-09-25T21:11:22.046Z,10.94
2018-09-25T21:13:55.515Z,11.01
2018-09-25T21:16:29.175Z,11.05
2018-09-25T21:19:02.734Z,11.09
2018-09-25T21:21:36.263Z,10.88
2018-09-25T21:24:09.997Z,10.79
2018-09-25T21:26:43.369Z,10.78
2018-09-25T21:29:16.941Z,10.89
2018-09-25T21:31:50.523Z,10.93
2018-09-25T21:36:56.652Z,10.59
2018-09-25T21:39:30.186Z,10.61
2018-09-25T21:42:03.894Z,10.41
2018-09-25T21:44:37.435Z,10.56
2018-09-25T21:47:11.002Z,10.44
2018-09-25T21:49:44.338Z,10.22
2018-09-25T21:52:17.864Z,10.29
2018-09-25T21:54:51.386Z,10.12
2018-09-25T21:57:25.197Z,10.38
2018-09-25T21:59:58.383Z,10.55
2018-09-25T22:02:31.837Z,10.48
2018-09-25T22:05:05.278Z,10.38
2018-09-25T22:07:38.769Z,10.33
2018-09-25T22:10:12.174Z,10.21
2018-09-25T22:12:45.774Z,10.21
2018-09-25T22:15:19.408Z,10.21
2018-09-25T22:17:52.927Z,10.15
2018-09-25T22:20:26.438Z,10.12
2018-09-25T22:22:59.929Z,10.10
2018-09-25T22:25:33.247Z,10.09
2018-09-25T22:28:06.629Z,10.05
2018-09-25T22:30:40.090Z,10.27
2018-09-25T22:33:13.566Z,9.86
2018-09-25T22:35:47.172Z,9.54
2018-09-25T22:38:20.817Z,9.82
2018-09-25T22:40:54.231Z,9.88
2018-09-25T22:43:27.727Z,9.89
2018-09-25T22:46:01.179Z,9.82
2018-09-25T22:48:34.826Z,9.79
2018-09-25T22:51:08.410Z,9.48
2018-09-25T22:53:41.886Z,9.36
2018-09-25T22:56:15.218Z,9.45
2018-09-25T22:58:48.809Z,9.57
2018-09-25T23:01:22.157Z,9.37
2018-09-25T23:03:55.676Z,9.39
2018-09-25T23:06:29.155Z,9.14
2018-09-25T23:09:02.654Z,9.25
2018-09-25T23:11:36.130Z,9.25
2018-09-25T23:14:09.682Z,9.56
2018-09-25T23:16:43.274Z,9.02
2018-09-25T23:19:16.718Z,9.16
2018-09-25T23:21:50.211Z,8.82
2018-09-25T23:24:23.684Z,9.16
2018-09-25T23:26:57.081Z,9.16
2018-09-25T23:29:30.872Z,9.12
2018-09-25T23:32:04.453Z,9.18
2018-09-25T23:34:38.145Z,9.21
2018-09-25T23:37:11.682Z,9.27
2018-09-25T23:40:00.013Z,9.24
2018-09-25T23:42:35.656Z,9.08
2018-09-25T23:45:09.369Z,9.23
2018-09-25T23:48:41.393Z,9.16
2018-09-25T23:51:14.978Z,9.35
2018-09-25T23:54:46.072Z,9.55
2018-09-25T23:57:19.154Z,9.46
2018-09-25T23:59:53.626Z,9.41
